Historyczne dane pomiarowe

Dodano dane terminowe – wersja testowa.

Dane z okresu 1951-2019

Wersja bazy: 1.34 [2019-03-16, lista zmian], aktualizacja planowana na 2019-04-15

Dane meteo z obszaru Polski uzyskane na podstawie danych udostępnionych przez Instytut Meteorologii i Gospodarki Wodnej – Państwowy Instytut Badawczy.

 

Wybierz Datę:    

       

TemperaturaWilgotnośćWiatrCiśnienieOpadyŚniegCzas trwania zjawisk
 Stacja t tx tn tng RH VA  wxwx mslp ppp RRR   cm mm wxwxwxwxwxwxwx
1972-05-15 12.7 15.0 9.8- 87.0- 6.0 0.0---- 0.0------------
1972-05-16 11.0 14.9 6.3- 88.5- 7.0 0.7---- 7.0------------
1972-05-17 15.3 21.1 11.3- 92.3- 4.7 1.3---- 5.2------------
1972-05-18 15.4 18.7 13.8- 88.3- 3.7 2.0---- 0.0------------
1972-05-19 17.3 23.5 9.2- 79.3- 3.3 1.3---- 0.0------------
1972-05-20 17.3 21.7 12.6- 67.0- 1.7 2.7---- 2.6------------
1972-05-21 14.5 21.5 10.1- 73.8- 1.0 2.7---- 0.0------------
1972-05-22 16.0 21.7 7.4- 63.8- 2.3 1.3---- 0.0------------
1972-05-23 15.0 21.6 7.6- 68.5- 1.7 0.0---- 6.6------------
1972-05-24 15.2 21.2 8.3- 71.3- 2.3 4.0---- 0.0------------
1972-05-25 15.7 22.0 8.8- 74.0- 3.3 3.3---- 5.9------------
1972-05-26 12.4 16.8 7.6- 74.8- 4.7 5.3---- 6.3------------
1972-05-27 13.2 17.1 9.6- 75.0- 3.3 1.3---- 0.0------------
1972-05-28 10.6 17.5 6.8- 77.8- 0.7 2.0---- 0.0------------
1972-05-29 10.0 17.2 6.1- 83.8- 4.7 4.0---- 0.0------------
1972-05-30 13.4 16.5 9.3- 71.0- 4.0 2.7---- 5.0------------
1972-05-31 12.5 16.5 8.1- 71.0- 6.0 1.3---- 0.0------------
1972-06-01 13.4 17.7 9.3- 68.8- 4.3 0.0---- 0.0------------
1972-06-02 11.6 17.9 6.2- 77.3- 2.0 0.0---- 0.0------------
1972-06-03 13.7 18.0 8.4- 67.3- 5.0 0.7---- 0.0------------
1972-06-04 15.8 21.5 5.8- 61.3- 1.3 3.3---- 0.0------------
1972-06-05 19.8 28.5 6.3- 48.8- 0.7 1.3---- 0.0------------
1972-06-06 22.0 28.3 12.1- 47.8- 0.0 2.0---- 0.0------------
1972-06-07 21.8 28.3 11.6- 55.5- 0.0 2.7---- 0.0------------
1972-06-08 19.8 26.1 13.6- 79.3- 3.0 0.7---- 0.8------------
1972-06-09 15.7 23.3 11.2- 65.5- 0.0 6.0---- 0.0------------
1972-06-10 16.1 21.3 7.1- 60.5- 0.0 0.0---- 0.0------------
1972-06-11 17.6 25.0 6.8- 66.8- 0.0 0.7---- 12.5------------
1972-06-12 22.1 28.1 7.3- 60.0- 1.0 4.0---- 0.9------------
1972-06-13 25.1 33.1 18.1- 62.0- 0.0 2.0---- 10.2------------
188.5 ms

 

Źródłem pochodzenia danych jest Instytut Meteorologii i Gospodarki Wodnej – Państwowy Instytut Badawczy. Dane Instytutu Meteorologii i Gospodarki Wodnej – Państwowego Instytutu Badawczego zostały przetworzone.

Dane źródłowe można odnaleźć na stronie https://dane.imgw.pl